createdAt,value
2019-02-02T00:02:19.752Z,33.27
2019-02-02T00:04:49.973Z,27.50
2019-02-02T00:07:20.282Z,28.53
2019-02-02T00:09:50.084Z,25.27
2019-02-02T00:12:19.768Z,30.17
2019-02-02T00:14:50.189Z,29.60
2019-02-02T00:17:21.618Z,24.83
2019-02-02T00:19:51.598Z,23.57
2019-02-02T00:22:21.309Z,33.27
2019-02-02T00:24:51.344Z,25.10
2019-02-02T00:27:21.356Z,29.40
2019-02-02T00:29:52.177Z,27.07
2019-02-02T00:32:22.898Z,30.00
2019-02-02T00:34:52.506Z,26.07
2019-02-02T00:37:22.169Z,32.43
2019-02-02T00:39:52.044Z,29.13
2019-02-02T00:42:21.691Z,27.50
2019-02-02T00:44:51.390Z,33.60
2019-02-02T00:47:21.086Z,24.47
2019-02-02T00:49:51.305Z,27.27
2019-02-02T00:52:22.050Z,34.97
2019-02-02T00:54:51.873Z,32.20
2019-02-02T00:57:22.116Z,28.93
2019-02-02T00:59:51.848Z,26.43
2019-02-02T01:02:21.761Z,32.80
2019-02-02T01:04:51.568Z,35.20
2019-02-02T01:07:21.564Z,36.03
2019-02-02T01:09:51.974Z,28.73
2019-02-02T01:12:22.739Z,31.77
2019-02-02T01:18:52.613Z,31.00
2019-02-02T01:21:22.890Z,27.60
2019-02-02T01:23:52.790Z,35.23
2019-02-02T01:26:22.672Z,28.03
2019-02-02T01:28:52.912Z,38.03
2019-02-02T01:31:22.607Z,29.27
2019-02-02T01:33:52.396Z,25.90
2019-02-02T01:36:22.111Z,30.77
2019-02-02T01:38:51.763Z,31.50
2019-02-02T01:41:21.893Z,29.83
2019-02-02T01:43:51.553Z,24.53
2019-02-02T01:46:21.675Z,25.77
2019-02-02T01:48:51.684Z,33.60
2019-02-02T01:51:21.466Z,30.97
2019-02-02T01:53:51.056Z,30.83
2019-02-02T01:56:20.870Z,26.90
2019-02-02T01:58:50.679Z,29.70
2019-02-02T02:01:20.394Z,29.93
2019-02-02T02:03:50.368Z,37.90
2019-02-02T02:06:19.968Z,26.07
2019-02-02T02:08:49.703Z,33.13
2019-02-02T02:11:19.788Z,25.63
2019-02-02T02:13:49.458Z,24.77
2019-02-02T02:16:19.069Z,41.43
2019-02-02T02:18:48.813Z,30.87
2019-02-02T02:21:18.549Z,30.97
2019-02-02T02:23:48.160Z,37.63
2019-02-02T02:26:18.391Z,29.47
2019-02-02T02:28:48.880Z,32.10
2019-02-02T02:31:19.375Z,34.03
2019-02-02T02:33:49.118Z,23.27
2019-02-02T02:36:19.025Z,27.00
2019-02-02T02:38:48.688Z,29.23
2019-02-02T02:41:18.268Z,23.93
2019-02-02T02:43:48.195Z,33.90
2019-02-02T02:46:17.840Z,27.97
2019-02-02T02:48:48.102Z,36.90
2019-02-02T02:51:17.685Z,29.27
2019-02-02T02:53:47.680Z,23.63
2019-02-02T02:56:17.300Z,25.67
2019-02-02T02:58:47.025Z,27.73
2019-02-02T03:01:16.685Z,29.90
2019-02-02T03:03:46.808Z,24.30
2019-02-02T03:06:16.864Z,27.37
2019-02-02T03:08:46.527Z,26.77
2019-02-02T03:11:16.080Z,34.30
2019-02-02T03:13:45.898Z,28.10
2019-02-02T03:16:15.484Z,39.03
2019-02-02T03:18:45.295Z,22.93
2019-02-02T03:21:14.873Z,28.07
2019-02-02T03:23:45.093Z,33.60
2019-02-02T03:26:14.785Z,35.70
2019-02-02T03:28:53.186Z,20.93
2019-02-02T03:31:15.826Z,23.37
2019-02-02T03:33:45.736Z,23.97
2019-02-02T03:36:15.399Z,28.67
2019-02-02T03:38:45.157Z,24.47
2019-02-02T03:41:15.031Z,25.40
2019-02-02T03:43:44.912Z,22.93
2019-02-02T03:46:14.469Z,29.07
2019-02-02T03:48:44.130Z,31.87
2019-02-02T03:51:13.775Z,27.07
2019-02-02T03:53:43.675Z,22.47
2019-02-02T03:56:13.341Z,29.47
2019-02-02T03:58:43.352Z,34.50
2019-02-02T04:01:12.996Z,24.43
2019-02-02T04:03:42.653Z,32.37
2019-02-02T04:06:12.306Z,33.47
2019-02-02T04:08:41.969Z,29.80
2019-02-02T04:11:12.089Z,26.17
2019-02-02T04:13:41.787Z,38.50
2019-02-02T04:16:11.342Z,35.73
2019-02-02T04:18:41.066Z,31.43
2019-02-02T04:21:10.991Z,34.73
2019-02-02T04:23:40.728Z,30.47
2019-02-02T04:26:10.824Z,24.60
2019-02-02T04:28:40.527Z,33.73
2019-02-02T04:31:10.774Z,35.83
2019-02-02T04:33:40.970Z,29.40
2019-02-02T04:36:10.914Z,28.90
2019-02-02T04:38:40.568Z,36.93
2019-02-02T04:41:10.516Z,26.37
2019-02-02T04:43:40.157Z,26.33
2019-02-02T04:46:09.804Z,30.10
2019-02-02T04:48:39.482Z,33.40
2019-02-02T04:51:09.233Z,31.83
2019-02-02T04:53:39.515Z,26.70
2019-02-02T04:56:09.168Z,20.67
2019-02-02T04:58:38.728Z,19.47
2019-02-02T05:01:08.426Z,22.10
2019-02-02T05:03:38.007Z,21.00
2019-02-02T05:06:07.785Z,23.53
2019-02-02T05:08:37.531Z,32.60
2019-02-02T05:11:07.465Z,22.40
2019-02-02T05:13:37.649Z,21.03
2019-02-02T05:16:07.800Z,31.50
2019-02-02T05:18:37.760Z,22.77
2019-02-02T05:21:07.565Z,37.47
2019-02-02T05:23:37.504Z,21.47
2019-02-02T05:26:07.412Z,29.63
2019-02-02T05:28:37.519Z,35.77
2019-02-02T05:31:07.287Z,41.43
2019-02-02T05:33:37.393Z,28.70
2019-02-02T05:36:07.197Z,35.00
2019-02-02T05:38:37.082Z,24.47
2019-02-02T05:41:06.930Z,24.50
2019-02-02T05:43:36.824Z,20.97
2019-02-02T05:46:07.047Z,23.80
2019-02-02T05:48:37.558Z,31.67
2019-02-02T05:51:07.361Z,30.77
2019-02-02T05:53:37.544Z,34.10
2019-02-02T05:56:07.342Z,34.43
2019-02-02T05:58:37.202Z,27.47
2019-02-02T06:01:08.700Z,22.27
2019-02-02T06:03:38.769Z,32.87
2019-02-02T06:06:08.635Z,21.27
2019-02-02T06:08:38.257Z,22.30
2019-02-02T06:11:07.971Z,23.40
2019-02-02T06:13:37.873Z,25.37
2019-02-02T06:16:07.437Z,28.47
2019-02-02T06:18:37.448Z,30.27
2019-02-02T06:21:07.100Z,30.57
2019-02-02T06:23:36.865Z,25.20
2019-02-02T06:26:06.631Z,30.40
2019-02-02T06:28:38.428Z,27.83
2019-02-02T06:31:09.733Z,25.93
2019-02-02T06:33:39.396Z,39.10
2019-02-02T06:36:28.042Z,32.37
2019-02-02T06:38:57.875Z,26.73
2019-02-02T06:41:27.808Z,25.10
2019-02-02T06:43:57.982Z,32.63
2019-02-02T06:46:27.844Z,22.80
2019-02-02T06:48:57.565Z,33.10
2019-02-02T06:51:27.677Z,32.87
2019-02-02T06:53:58.011Z,30.10
2019-02-02T06:56:27.669Z,28.63
2019-02-02T06:58:57.982Z,37.20
2019-02-02T07:01:27.656Z,45.07
2019-02-02T07:03:57.288Z,29.57
2019-02-02T07:06:27.262Z,34.77
2019-02-02T07:08:57.175Z,32.33
2019-02-02T07:11:26.865Z,24.77
2019-02-02T07:13:56.610Z,28.00
2019-02-02T07:16:26.189Z,37.07
2019-02-02T07:18:56.879Z,28.87
2019-02-02T07:21:26.442Z,22.53
2019-02-02T07:23:56.240Z,22.70
2019-02-02T07:26:26.054Z,32.70
2019-02-02T07:28:56.081Z,37.27
2019-02-02T07:31:25.677Z,26.53
2019-02-02T07:33:56.130Z,39.27
2019-02-02T07:36:25.923Z,37.97
2019-02-02T07:38:55.878Z,31.77
2019-02-02T07:41:25.535Z,27.67
2019-02-02T07:43:55.266Z,33.63
2019-02-02T07:46:24.903Z,31.00
2019-02-02T07:48:54.491Z,42.93
2019-02-02T07:51:24.407Z,36.53
2019-02-02T07:53:54.040Z,46.57
2019-02-02T07:56:23.676Z,28.70
2019-02-02T07:58:53.477Z,32.57
2019-02-02T08:01:23.060Z,31.03
2019-02-02T08:03:52.899Z,25.70
2019-02-02T08:06:22.943Z,28.43
2019-02-02T08:08:52.717Z,42.57
2019-02-02T08:11:22.419Z,33.60
2019-02-02T08:13:52.132Z,28.97
2019-02-02T08:16:22.603Z,34.30
2019-02-02T08:18:52.715Z,29.67
2019-02-02T08:21:23.791Z,32.77
2019-02-02T08:23:53.517Z,30.50
2019-02-02T08:26:23.709Z,42.97
2019-02-02T08:28:54.114Z,35.77
2019-02-02T08:31:24.018Z,30.23
2019-02-02T08:34:12.860Z,42.80
2019-02-02T08:36:43.022Z,33.33
2019-02-02T08:39:13.115Z,33.53
2019-02-02T08:41:43.202Z,36.87
2019-02-02T08:44:13.601Z,25.43
2019-02-02T08:46:43.935Z,41.77
2019-02-02T08:49:14.049Z,37.63
2019-02-02T08:51:44.381Z,42.43
2019-02-02T08:54:14.584Z,45.50
2019-02-02T08:56:46.733Z,40.30
2019-02-02T08:59:16.576Z,48.03
2019-02-02T09:01:48.189Z,36.80
2019-02-02T09:04:18.704Z,41.83
2019-02-02T09:06:48.607Z,39.10
2019-02-02T09:09:18.579Z,34.47
2019-02-02T09:11:48.900Z,35.53
2019-02-02T09:14:19.090Z,40.80
2019-02-02T09:16:49.138Z,35.60
2019-02-02T09:19:20.323Z,25.57
2019-02-02T09:21:50.606Z,48.40
2019-02-02T09:24:21.079Z,43.00
2019-02-02T09:26:50.858Z,42.83
2019-02-02T09:29:21.086Z,36.47
2019-02-02T09:31:51.458Z,44.17
2019-02-02T09:34:21.210Z,34.30
2019-02-02T09:36:51.724Z,38.03
2019-02-02T09:39:21.634Z,45.40
2019-02-02T09:41:51.789Z,45.23
2019-02-02T09:44:21.959Z,36.87
2019-02-02T09:46:51.878Z,49.00
2019-02-02T09:49:22.953Z,42.63
2019-02-02T09:51:53.273Z,45.03
2019-02-02T09:54:26.676Z,46.17
2019-02-02T09:56:54.889Z,35.40
2019-02-02T09:59:25.451Z,39.03
2019-02-02T10:01:55.834Z,39.10
2019-02-02T10:04:27.971Z,45.47
2019-02-02T10:07:07.244Z,40.50
2019-02-02T10:09:45.453Z,41.23
2019-02-02T10:12:21.585Z,38.87
2019-02-02T10:14:58.559Z,42.13
2019-02-02T10:17:35.528Z,46.20
2019-02-02T10:20:12.957Z,50.70
2019-02-02T10:22:49.987Z,37.93
2019-02-02T10:25:28.676Z,45.27
2019-02-02T10:28:07.710Z,35.37
2019-02-02T10:30:45.460Z,42.13
2019-02-02T10:33:22.137Z,37.80
2019-02-02T10:35:57.970Z,42.57
2019-02-02T10:38:29.320Z,44.33
2019-02-02T10:41:02.091Z,55.00
2019-02-02T10:43:32.252Z,48.97
2019-02-02T10:46:02.480Z,43.83
2019-02-02T10:48:32.762Z,59.73
2019-02-02T10:51:04.197Z,40.23
2019-02-02T10:53:34.558Z,48.17
2019-02-02T10:56:04.857Z,48.13
2019-02-02T10:58:34.794Z,43.50
2019-02-02T11:01:05.376Z,39.83
2019-02-02T11:03:35.054Z,38.77
2019-02-02T11:06:05.653Z,52.80
2019-02-02T11:08:37.297Z,53.67
2019-02-02T11:11:07.518Z,40.20
2019-02-02T11:13:37.596Z,54.40
2019-02-02T11:16:09.057Z,43.27
2019-02-02T11:18:39.079Z,46.47
2019-02-02T11:21:09.984Z,55.10
2019-02-02T11:23:39.853Z,44.33
2019-02-02T11:26:09.798Z,47.70
2019-02-02T11:28:40.072Z,46.77
2019-02-02T11:31:10.351Z,47.43
2019-02-02T11:33:40.137Z,38.80
2019-02-02T11:36:12.459Z,56.37
2019-02-02T11:38:42.765Z,45.70
2019-02-02T11:41:12.826Z,38.83
2019-02-02T11:43:42.761Z,57.47
2019-02-02T11:46:12.425Z,40.60
2019-02-02T11:48:42.098Z,45.27
2019-02-02T11:51:12.839Z,50.17
2019-02-02T11:53:42.828Z,49.60
2019-02-02T11:56:13.014Z,34.50
2019-02-02T11:58:43.194Z,56.10
2019-02-02T12:01:13.191Z,39.77
2019-02-02T12:03:43.095Z,52.00
2019-02-02T12:06:13.928Z,54.17
2019-02-02T12:08:43.669Z,47.13
2019-02-02T12:11:33.010Z,51.97
2019-02-02T12:14:02.660Z,58.33
2019-02-02T12:16:32.340Z,58.23
2019-02-02T12:19:02.311Z,40.13
2019-02-02T12:21:31.970Z,65.27
2019-02-02T12:24:12.743Z,43.67
2019-02-02T12:26:33.785Z,52.33
2019-02-02T12:29:03.836Z,66.27
2019-02-02T12:31:33.893Z,54.07
2019-02-02T12:34:04.069Z,69.57
2019-02-02T12:36:35.937Z,57.10
2019-02-02T12:39:10.326Z,48.60
2019-02-02T12:41:40.088Z,59.70
2019-02-02T12:44:10.403Z,70.97
2019-02-02T12:46:40.479Z,47.50
2019-02-02T12:49:23.279Z,71.20
2019-02-02T12:51:53.943Z,52.03
2019-02-02T12:54:24.633Z,62.77
2019-02-02T12:56:55.503Z,65.00
2019-02-02T12:59:26.039Z,50.00
2019-02-02T13:01:55.876Z,51.60
2019-02-02T13:04:26.858Z,56.87
2019-02-02T13:06:57.834Z,67.97
2019-02-02T13:09:29.043Z,48.30
2019-02-02T13:11:59.311Z,54.47
2019-02-02T13:14:30.570Z,67.30
2019-02-02T13:17:01.634Z,49.93
2019-02-02T13:19:31.706Z,72.83
2019-02-02T13:22:01.911Z,57.13
2019-02-02T13:24:31.706Z,56.67
2019-02-02T13:27:01.413Z,68.47
2019-02-02T13:29:31.461Z,61.07
2019-02-02T13:32:01.177Z,61.60
2019-02-02T13:34:31.501Z,62.03
2019-02-02T13:37:01.620Z,65.17
2019-02-02T13:39:31.755Z,57.37
2019-02-02T13:42:02.626Z,69.10
2019-02-02T13:44:32.685Z,58.67
2019-02-02T13:47:02.445Z,69.33
2019-02-02T13:49:32.328Z,74.63
2019-02-02T13:52:02.465Z,69.63
2019-02-02T13:54:32.206Z,65.60
2019-02-02T13:57:01.988Z,75.43
2019-02-02T13:59:32.033Z,60.20
2019-02-02T14:02:01.790Z,76.70
2019-02-02T14:04:31.622Z,71.50
2019-02-02T14:07:01.860Z,54.50
2019-02-02T14:09:31.553Z,60.60
2019-02-02T14:12:03.121Z,59.90
2019-02-02T14:14:33.084Z,54.30
2019-02-02T14:17:05.064Z,80.53
2019-02-02T14:19:34.975Z,56.70
2019-02-02T14:22:04.946Z,60.83
2019-02-02T14:24:35.947Z,50.87
2019-02-02T14:27:06.324Z,65.40
2019-02-02T14:29:36.500Z,55.97
2019-02-02T14:32:06.353Z,74.73
2019-02-02T14:34:40.261Z,52.97
2019-02-02T14:37:08.770Z,64.70
2019-02-02T14:39:38.469Z,51.40
2019-02-02T14:42:08.550Z,70.60
2019-02-02T14:44:38.366Z,55.37
2019-02-02T14:47:08.130Z,58.20
2019-02-02T14:49:38.318Z,60.47
2019-02-02T14:52:08.579Z,74.03
2019-02-02T14:54:39.117Z,76.17
2019-02-02T14:57:10.049Z,61.17
2019-02-02T14:59:40.133Z,59.90
2019-02-02T15:02:10.126Z,76.13
2019-02-02T15:04:40.468Z,76.33
2019-02-02T15:07:11.380Z,49.57
2019-02-02T15:09:41.404Z,55.70
2019-02-02T15:12:11.154Z,52.07
2019-02-02T15:14:41.112Z,80.40
2019-02-02T15:17:11.559Z,70.67
2019-02-02T15:19:41.428Z,60.27
2019-02-02T15:22:11.574Z,51.23
2019-02-02T15:24:41.430Z,69.87
2019-02-02T15:27:14.832Z,52.93
2019-02-02T15:29:45.972Z,67.60
2019-02-02T15:32:15.889Z,51.33
2019-02-02T15:34:45.702Z,71.03
2019-02-02T15:37:15.726Z,36.50
2019-02-02T15:39:46.020Z,63.50
2019-02-02T15:42:18.057Z,63.23
2019-02-02T15:44:47.901Z,81.93
2019-02-02T15:47:17.979Z,67.87
2019-02-02T15:49:48.833Z,71.67
2019-02-02T15:52:20.042Z,78.03
2019-02-02T15:54:50.849Z,52.07
2019-02-02T15:57:21.046Z,64.93
2019-02-02T15:59:50.812Z,71.30
2019-02-02T16:02:20.907Z,44.90
2019-02-02T16:04:51.979Z,67.30
2019-02-02T16:07:22.234Z,55.03
2019-02-02T16:10:15.285Z,61.53
2019-02-02T16:12:45.053Z,65.50
2019-02-02T16:15:15.481Z,70.63
2019-02-02T16:17:48.830Z,59.77
2019-02-02T16:20:20.761Z,54.40
2019-02-02T16:22:53.248Z,66.13
2019-02-02T16:25:23.311Z,56.83
2019-02-02T16:27:55.484Z,56.00
2019-02-02T16:30:26.701Z,40.80
2019-02-02T16:32:57.030Z,68.13
2019-02-02T16:35:27.286Z,39.37
2019-02-02T16:37:57.583Z,35.70
2019-02-02T16:40:28.605Z,64.00
2019-02-02T16:42:58.635Z,60.00
2019-02-02T16:45:29.939Z,62.67
2019-02-02T16:47:59.898Z,56.93
2019-02-02T16:50:30.547Z,60.77
2019-02-02T16:53:01.090Z,66.20
2019-02-02T16:55:31.194Z,70.40
2019-02-02T16:58:01.032Z,69.67
2019-02-02T17:00:32.894Z,64.47
2019-02-02T17:03:02.959Z,67.10
2019-02-02T17:05:32.906Z,63.17
2019-02-02T17:08:03.518Z,74.03
2019-02-02T17:10:37.964Z,66.33
2019-02-02T17:13:08.373Z,68.83
2019-02-02T17:15:39.400Z,74.13
2019-02-02T17:18:09.720Z,64.83
2019-02-02T17:20:41.892Z,73.13
2019-02-02T17:23:12.446Z,68.27
2019-02-02T17:25:42.433Z,70.90
2019-02-02T17:28:12.614Z,85.90
2019-02-02T17:30:42.819Z,56.33
2019-02-02T17:33:15.327Z,96.93
2019-02-02T17:35:46.227Z,74.53
2019-02-02T17:38:16.251Z,82.07
2019-02-02T17:40:46.113Z,63.90
2019-02-02T17:43:16.076Z,66.37
2019-02-02T17:45:46.162Z,65.07
2019-02-02T17:48:16.191Z,61.13
2019-02-02T17:50:46.362Z,66.37
2019-02-02T17:53:16.624Z,65.73
2019-02-02T17:55:46.445Z,73.97
2019-02-02T17:58:16.569Z,47.70
2019-02-02T18:01:01.023Z,65.77
2019-02-02T18:03:31.154Z,49.53
2019-02-02T18:06:01.195Z,57.73
2019-02-02T18:11:11.805Z,60.07
2019-02-02T18:13:41.653Z,53.93
2019-02-02T18:16:11.832Z,66.87
2019-02-02T18:18:42.091Z,48.67
2019-02-02T18:21:12.241Z,59.30
2019-02-02T18:23:43.121Z,67.83
2019-02-02T18:26:13.044Z,62.33
2019-02-02T18:28:43.035Z,66.63
2019-02-02T18:31:13.520Z,56.10
2019-02-02T18:33:44.479Z,54.77
2019-02-02T18:36:14.951Z,53.27
2019-02-02T18:38:45.374Z,54.53
2019-02-02T18:41:15.722Z,74.63
2019-02-02T18:43:45.710Z,59.80
2019-02-02T18:46:17.374Z,54.00
2019-02-02T18:48:48.287Z,47.73
2019-02-02T18:51:18.183Z,60.97
2019-02-02T18:53:48.316Z,79.67
2019-02-02T18:56:18.682Z,54.53
2019-02-02T18:58:48.879Z,59.93
2019-02-02T19:01:19.139Z,58.47
2019-02-02T19:03:49.678Z,54.83
2019-02-02T19:06:20.004Z,81.13
2019-02-02T19:08:50.067Z,75.23
2019-02-02T19:11:19.852Z,67.43
2019-02-02T19:13:50.908Z,57.17
2019-02-02T19:16:20.962Z,71.33
2019-02-02T19:18:50.930Z,63.97
2019-02-02T19:21:20.831Z,59.87
2019-02-02T19:23:51.328Z,73.83
2019-02-02T19:26:40.227Z,62.20
2019-02-02T19:29:10.383Z,67.93
2019-02-02T19:31:40.474Z,60.30
2019-02-02T19:34:10.578Z,54.53
2019-02-02T19:36:41.032Z,63.70
2019-02-02T19:39:11.362Z,59.47
2019-02-02T19:41:41.372Z,68.30
2019-02-02T19:44:11.608Z,66.53
2019-02-02T19:46:42.152Z,71.80
2019-02-02T19:49:12.609Z,65.03
2019-02-02T19:52:02.006Z,74.00
2019-02-02T19:54:32.328Z,85.30
2019-02-02T19:57:02.166Z,69.80
2019-02-02T19:59:32.226Z,61.50
2019-02-02T20:02:02.195Z,57.27
2019-02-02T20:04:33.237Z,58.23
2019-02-02T20:07:03.162Z,71.83
2019-02-02T20:09:34.475Z,66.73
2019-02-02T20:12:04.822Z,63.90
2019-02-02T20:14:35.084Z,64.93
2019-02-02T20:17:05.362Z,61.13
2019-02-02T20:19:35.799Z,62.90
2019-02-02T20:22:06.029Z,66.63
2019-02-02T20:24:36.053Z,60.30
2019-02-02T20:27:06.041Z,58.70
2019-02-02T20:29:37.201Z,74.47
2019-02-02T20:32:07.579Z,43.17
2019-02-02T20:34:37.845Z,64.20
2019-02-02T20:37:07.834Z,64.20
2019-02-02T20:39:37.839Z,61.13
2019-02-02T20:42:08.236Z,61.10
2019-02-02T20:44:38.308Z,60.93
2019-02-02T20:47:09.028Z,62.07
2019-02-02T20:49:39.041Z,66.97
2019-02-02T20:52:09.493Z,67.57
2019-02-02T20:54:58.168Z,58.37
2019-02-02T20:57:28.279Z,66.43
2019-02-02T20:59:58.503Z,66.33
2019-02-02T21:02:28.091Z,72.27
2019-02-02T21:04:57.747Z,56.77
2019-02-02T21:07:27.635Z,71.13
2019-02-02T21:09:57.902Z,62.73
2019-02-02T21:12:28.029Z,64.60
2019-02-02T21:14:58.157Z,78.90
2019-02-02T21:17:28.048Z,73.07
2019-02-02T21:19:58.110Z,59.00
2019-02-02T21:22:28.289Z,57.83
2019-02-02T21:24:58.390Z,61.17
2019-02-02T21:27:29.100Z,83.63
2019-02-02T21:29:59.459Z,67.03
2019-02-02T21:32:29.321Z,65.43
2019-02-02T21:34:59.186Z,77.63
2019-02-02T21:37:29.050Z,59.77
2019-02-02T21:39:59.019Z,74.77
2019-02-02T21:42:28.757Z,72.50
2019-02-02T21:44:58.509Z,55.20
2019-02-02T21:47:28.574Z,77.20
2019-02-02T21:49:58.514Z,51.97
2019-02-02T21:52:28.518Z,60.23
2019-02-02T21:54:58.478Z,65.40
2019-02-02T21:57:28.882Z,60.83
2019-02-02T21:59:59.301Z,70.07
2019-02-02T22:02:29.518Z,47.77
2019-02-02T22:04:59.629Z,40.03
2019-02-02T22:07:29.445Z,67.63
2019-02-02T22:09:59.562Z,63.10
2019-02-02T22:12:29.314Z,57.43
2019-02-02T22:14:59.451Z,54.03
2019-02-02T22:17:29.846Z,61.33
2019-02-02T22:20:00.311Z,62.60
2019-02-02T22:22:30.166Z,66.20
2019-02-02T22:25:00.703Z,58.80
2019-02-02T22:27:31.028Z,58.80
2019-02-02T22:30:01.560Z,47.27
2019-02-02T22:32:31.931Z,58.03
2019-02-02T22:35:02.101Z,48.83
2019-02-02T22:37:32.312Z,56.43
2019-02-02T22:40:02.273Z,63.33
2019-02-02T22:42:32.322Z,64.60
2019-02-02T22:45:02.589Z,72.93
2019-02-02T22:47:32.521Z,51.57
2019-02-02T22:50:02.720Z,63.00
2019-02-02T22:52:33.217Z,64.53
2019-02-02T22:55:04.422Z,60.97
2019-02-02T22:57:34.848Z,68.27
2019-02-02T23:00:11.804Z,57.23
2019-02-02T23:02:41.828Z,71.47
2019-02-02T23:05:44.547Z,63.67
2019-02-02T23:09:05.186Z,56.77
2019-02-02T23:11:57.532Z,61.63
2019-02-02T23:15:03.955Z,60.83
2019-02-02T23:17:33.628Z,64.67
2019-02-02T23:20:03.878Z,62.60
2019-02-02T23:22:33.530Z,63.37
2019-02-02T23:25:03.148Z,67.70
2019-02-02T23:27:33.111Z,70.13
2019-02-02T23:30:03.081Z,61.67
2019-02-02T23:32:33.412Z,65.10
2019-02-02T23:35:03.460Z,71.80
2019-02-02T23:37:33.945Z,57.47
2019-02-02T23:40:04.005Z,58.40
2019-02-02T23:42:34.305Z,63.83
2019-02-02T23:45:04.496Z,62.67
2019-02-02T23:47:34.714Z,50.00
2019-02-02T23:50:05.233Z,54.30
2019-02-02T23:52:35.347Z,57.17
2019-02-02T23:55:05.531Z,41.73
2019-02-02T23:57:36.274Z,48.60
